Metar z połowy godziny Komunikat METAR ze strony awiacja.imgw.pl Metar G30 EPWR METAR EPWR 231230Z 28005KT 230V330 CAVOK 24/11 Q1011 =